createdAt,value
2022-11-13T00:00:25.996Z,14.13
2022-11-13T00:03:11.737Z,14.75
2022-11-13T00:06:03.619Z,14.63
2022-11-13T00:08:53.641Z,15.00
2022-11-13T00:11:39.673Z,17.00
2022-11-13T00:14:25.684Z,14.88
2022-11-13T00:17:11.885Z,15.70
2022-11-13T00:19:57.728Z,16.13
2022-11-13T00:22:43.416Z,15.52
2022-11-13T00:25:29.103Z,16.95
2022-11-13T00:28:15.502Z,15.45
2022-11-13T00:31:02.410Z,12.65
2022-11-13T00:34:14.163Z,12.27
2022-11-13T00:36:54.492Z,15.23
2022-11-13T00:39:40.170Z,15.20
2022-11-13T00:42:25.956Z,16.90
2022-11-13T00:45:11.913Z,14.95
2022-11-13T00:47:57.859Z,15.55
2022-11-13T00:50:43.687Z,19.13
2022-11-13T00:53:29.653Z,18.75
2022-11-13T00:56:15.728Z,16.65
2022-11-13T00:59:01.393Z,20.25
2022-11-13T01:01:47.225Z,15.82
2022-11-13T01:04:33.047Z,15.45
2022-11-13T01:07:18.815Z,14.98
2022-11-13T01:10:05.878Z,15.60
2022-11-13T01:12:51.753Z,15.60
2022-11-13T01:15:40.935Z,15.88
2022-11-13T01:18:27.195Z,16.05
2022-11-13T01:21:15.163Z,13.38
2022-11-13T01:24:02.302Z,13.60
2022-11-13T01:26:47.987Z,13.50
2022-11-13T01:29:33.910Z,15.02
2022-11-13T01:32:51.856Z,13.77
2022-11-13T01:35:37.724Z,14.88
2022-11-13T01:38:23.498Z,13.63
2022-11-13T01:41:13.518Z,13.80
2022-11-13T01:43:59.926Z,14.55
2022-11-13T01:46:54.212Z,13.15
2022-11-13T01:49:41.441Z,13.60
2022-11-13T01:52:36.934Z,15.00
2022-11-13T01:55:22.600Z,13.07
2022-11-13T01:58:09.474Z,14.77
2022-11-13T02:00:55.443Z,15.75
2022-11-13T02:03:41.518Z,14.68
2022-11-13T02:06:29.451Z,14.98
2022-11-13T02:09:16.984Z,13.00
2022-11-13T02:12:04.290Z,13.63
2022-11-13T02:14:53.089Z,14.02
2022-11-13T02:17:44.634Z,17.65
2022-11-13T02:20:41.171Z,15.38
2022-11-13T02:23:40.769Z,15.32
2022-11-13T02:26:27.284Z,17.17
2022-11-13T02:29:13.216Z,17.02
2022-11-13T02:31:59.558Z,16.48
2022-11-13T02:34:45.286Z,17.23
2022-11-13T02:37:31.073Z,15.80
2022-11-13T02:40:17.667Z,14.27
2022-11-13T02:43:03.501Z,19.50
2022-11-13T02:45:51.988Z,17.92
2022-11-13T02:48:38.119Z,16.85
2022-11-13T02:51:23.984Z,14.60
2022-11-13T02:54:12.921Z,14.85
2022-11-13T02:57:02.837Z,15.50
2022-11-13T02:59:48.466Z,14.27
2022-11-13T03:02:34.558Z,15.07
2022-11-13T03:05:20.879Z,14.55
2022-11-13T03:08:07.494Z,17.15
2022-11-13T03:10:54.419Z,13.13
2022-11-13T03:13:41.250Z,15.60
2022-11-13T03:16:27.070Z,15.63
2022-11-13T03:19:12.675Z,14.52
2022-11-13T03:21:58.645Z,15.23
2022-11-13T03:24:44.292Z,14.98
2022-11-13T03:27:31.616Z,13.18
2022-11-13T03:30:17.353Z,14.90
2022-11-13T03:33:03.558Z,13.98
2022-11-13T03:35:49.621Z,12.88
2022-11-13T03:38:36.003Z,16.85
2022-11-13T03:41:23.029Z,15.70
2022-11-13T03:44:08.942Z,16.15
2022-11-13T03:46:54.901Z,16.35
2022-11-13T03:49:40.533Z,14.60
2022-11-13T03:52:26.790Z,14.48
2022-11-13T03:55:12.625Z,14.77
2022-11-13T03:57:59.553Z,15.65
2022-11-13T04:00:46.158Z,17.95
2022-11-13T04:03:31.977Z,14.88
2022-11-13T04:06:18.329Z,16.23
2022-11-13T04:09:04.355Z,16.23
2022-11-13T04:11:50.423Z,17.75
2022-11-13T04:14:36.553Z,17.30
2022-11-13T04:17:22.924Z,16.17
2022-11-13T04:20:09.111Z,14.50
2022-11-13T04:22:55.673Z,14.32
2022-11-13T04:25:41.556Z,17.52
2022-11-13T04:28:27.967Z,16.05
2022-11-13T04:31:14.163Z,15.98
2022-11-13T04:34:00.869Z,16.38
2022-11-13T04:36:46.805Z,16.75
2022-11-13T04:39:33.147Z,15.38
2022-11-13T04:42:37.985Z,16.92
2022-11-13T04:45:24.634Z,19.48
2022-11-13T04:48:10.580Z,15.98
2022-11-13T04:50:56.353Z,16.80
2022-11-13T04:53:42.171Z,15.68
2022-11-13T04:56:28.142Z,14.27
2022-11-13T04:59:14.571Z,15.68
2022-11-13T05:02:01.152Z,14.95
2022-11-13T05:04:47.072Z,16.02
2022-11-13T05:07:32.684Z,17.30
2022-11-13T05:10:18.569Z,15.63
2022-11-13T05:13:04.259Z,16.23
2022-11-13T05:15:50.262Z,17.92
2022-11-13T05:18:37.385Z,16.95
2022-11-13T05:21:23.337Z,16.88
2022-11-13T05:24:11.182Z,16.08
2022-11-13T05:26:57.410Z,18.70
2022-11-13T05:29:43.049Z,14.52
2022-11-13T05:32:28.596Z,16.58
2022-11-13T05:35:14.513Z,16.30
2022-11-13T05:38:03.142Z,17.58
2022-11-13T05:40:49.258Z,16.58
2022-11-13T05:43:36.246Z,17.90
2022-11-13T05:46:23.442Z,16.70
2022-11-13T05:49:10.446Z,17.15
2022-11-13T05:51:56.658Z,15.82
2022-11-13T05:54:45.503Z,13.52
2022-11-13T05:57:31.562Z,17.90
2022-11-13T06:00:17.615Z,15.02
2022-11-13T06:03:03.561Z,16.33
2022-11-13T06:05:49.152Z,15.90
2022-11-13T06:08:35.598Z,14.05
2022-11-13T06:11:23.602Z,16.67
2022-11-13T06:14:09.601Z,15.05
2022-11-13T06:16:55.429Z,15.25
2022-11-13T06:19:41.115Z,13.45
2022-11-13T06:22:28.188Z,12.50
2022-11-13T06:25:14.336Z,13.98
2022-11-13T06:28:00.037Z,15.60
2022-11-13T06:30:45.873Z,15.48
2022-11-13T06:33:32.040Z,13.75
2022-11-13T06:36:19.168Z,15.73
2022-11-13T06:39:08.699Z,12.70
2022-11-13T06:41:54.941Z,16.05
2022-11-13T06:44:40.616Z,14.70
2022-11-13T06:47:26.506Z,16.17
2022-11-13T06:50:12.806Z,13.50
2022-11-13T06:52:59.010Z,12.93
2022-11-13T06:55:48.954Z,15.70
2022-11-13T06:58:34.957Z,16.88
2022-11-13T07:01:22.556Z,18.65
2022-11-13T07:04:12.315Z,17.45
2022-11-13T07:06:58.712Z,16.48
2022-11-13T07:09:44.900Z,15.88
2022-11-13T07:12:30.723Z,15.40
2022-11-13T07:15:16.652Z,16.77
2022-11-13T07:18:03.442Z,16.27
2022-11-13T07:20:49.853Z,15.90
2022-11-13T07:23:37.122Z,15.48
2022-11-13T07:26:22.894Z,16.85
2022-11-13T07:29:08.800Z,16.45
2022-11-13T07:31:54.740Z,15.38
2022-11-13T07:34:40.703Z,14.10
2022-11-13T07:37:27.977Z,16.05
2022-11-13T07:40:13.912Z,13.85
2022-11-13T07:43:00.709Z,15.15
2022-11-13T07:45:46.379Z,14.55
2022-11-13T07:48:32.446Z,15.18
2022-11-13T07:51:18.634Z,16.42
2022-11-13T07:54:04.839Z,16.20
2022-11-13T07:56:50.760Z,14.52
2022-11-13T07:59:36.644Z,16.27
2022-11-13T08:02:26.310Z,16.75
2022-11-13T08:05:12.741Z,14.60
2022-11-13T08:07:58.386Z,15.27
2022-11-13T08:10:44.049Z,15.40
2022-11-13T08:13:29.877Z,19.08
2022-11-13T08:16:16.287Z,21.90
2022-11-13T08:19:02.771Z,34.15
2022-11-13T08:21:48.719Z,27.02
2022-11-13T08:24:34.795Z,27.23
2022-11-13T08:27:21.331Z,29.60
2022-11-13T08:30:07.764Z,27.90
2022-11-13T08:32:54.045Z,19.80
2022-11-13T08:35:39.648Z,21.77
2022-11-13T08:38:25.460Z,17.40
2022-11-13T08:41:11.797Z,20.15
2022-11-13T08:43:58.109Z,21.48
2022-11-13T08:46:43.882Z,18.88
2022-11-13T08:49:29.973Z,18.65
2022-11-13T08:52:16.206Z,20.05
2022-11-13T08:55:01.970Z,23.02
2022-11-13T08:57:47.733Z,24.92
2022-11-13T09:00:33.583Z,42.42
2022-11-13T09:03:19.855Z,81.90
2022-11-13T09:06:09.106Z,159.70
2022-11-13T09:08:55.490Z,91.40
2022-11-13T09:11:41.899Z,76.53
2022-11-13T09:14:28.699Z,65.43
2022-11-13T09:17:14.425Z,123.40
2022-11-13T09:20:03.963Z,81.15
2022-11-13T09:22:56.604Z,75.00
2022-11-13T09:25:42.585Z,51.25
2022-11-13T09:28:28.443Z,58.90
2022-11-13T09:31:14.583Z,83.03
2022-11-13T09:34:00.736Z,79.60
2022-11-13T09:36:46.764Z,95.72
2022-11-13T09:39:33.201Z,77.10
2022-11-13T09:42:27.059Z,104.00
2022-11-13T09:45:14.536Z,74.15
2022-11-13T09:48:08.452Z,68.13
2022-11-13T09:50:54.545Z,75.70
2022-11-13T09:53:40.876Z,67.03
2022-11-13T09:56:32.574Z,68.78
2022-11-13T09:59:37.054Z,79.47
2022-11-13T10:02:44.546Z,79.03
2022-11-13T10:05:40.722Z,73.30
2022-11-13T10:08:49.838Z,72.45
2022-11-13T10:11:42.429Z,72.95
2022-11-13T10:14:31.252Z,65.53
2022-11-13T10:17:24.071Z,44.22
2022-11-13T10:20:12.777Z,39.47
2022-11-13T10:23:02.116Z,58.35
2022-11-13T10:25:48.227Z,57.30
2022-11-13T10:28:51.391Z,50.30
2022-11-13T10:31:48.463Z,49.35
2022-11-13T10:34:34.699Z,34.85
2022-11-13T10:37:44.341Z,35.58
2022-11-13T10:40:31.807Z,45.15
2022-11-13T10:43:22.419Z,46.00
2022-11-13T10:46:08.188Z,52.88
2022-11-13T10:48:54.214Z,43.97
2022-11-13T10:51:40.192Z,41.72
2022-11-13T10:54:29.846Z,35.22
2022-11-13T10:57:23.899Z,31.08
2022-11-13T11:00:22.075Z,30.15
2022-11-13T11:03:18.840Z,31.08
2022-11-13T11:06:05.628Z,33.25
2022-11-13T11:08:51.903Z,29.42
2022-11-13T11:11:56.560Z,30.52
2022-11-13T11:14:54.724Z,28.05
2022-11-13T11:17:54.091Z,27.73
2022-11-13T11:20:43.677Z,24.88
2022-11-13T11:23:42.103Z,25.20
2022-11-13T11:26:36.346Z,22.55
2022-11-13T11:29:34.377Z,25.52
2022-11-13T11:32:40.765Z,21.63
2022-11-13T11:35:32.357Z,21.48
2022-11-13T11:38:24.054Z,22.13
2022-11-13T11:41:16.689Z,21.55
2022-11-13T11:44:05.968Z,23.02
2022-11-13T11:46:52.039Z,22.17
2022-11-13T11:49:37.752Z,23.20
2022-11-13T11:52:28.701Z,22.02
2022-11-13T11:55:17.691Z,20.40
2022-11-13T11:58:21.948Z,18.05
2022-11-13T12:01:19.685Z,17.60
2022-11-13T12:04:05.827Z,16.25
2022-11-13T12:06:59.837Z,15.73
2022-11-13T12:09:52.425Z,18.90
2022-11-13T12:12:49.858Z,17.42
2022-11-13T12:15:38.340Z,16.00
2022-11-13T12:18:36.919Z,14.95
2022-11-13T12:21:24.317Z,14.38
2022-11-13T12:24:16.285Z,14.50
2022-11-13T12:27:20.667Z,15.68
2022-11-13T12:30:22.872Z,15.32
2022-11-13T12:33:11.376Z,15.88
2022-11-13T12:35:57.546Z,12.95
2022-11-13T12:38:57.077Z,12.98
2022-11-13T12:41:48.709Z,13.05
2022-11-13T12:44:42.324Z,14.38
2022-11-13T12:47:28.260Z,12.60
2022-11-13T12:50:32.452Z,13.30
2022-11-13T12:53:25.077Z,12.25
2022-11-13T12:56:15.630Z,13.38
2022-11-13T12:59:29.359Z,12.55
2022-11-13T13:02:09.847Z,13.02
2022-11-13T13:05:08.140Z,13.88
2022-11-13T13:08:05.481Z,13.05
2022-11-13T13:11:09.933Z,13.32
2022-11-13T13:13:58.644Z,21.23
2022-11-13T13:16:44.812Z,18.48
2022-11-13T13:19:31.592Z,20.65
2022-11-13T13:22:30.837Z,20.65
2022-11-13T13:25:28.960Z,21.10
2022-11-13T13:28:25.510Z,17.30
2022-11-13T13:31:11.235Z,16.48
2022-11-13T13:33:59.841Z,15.73
2022-11-13T13:36:51.663Z,14.63
2022-11-13T13:39:50.212Z,15.25
2022-11-13T13:42:41.943Z,14.30
2022-11-13T13:45:28.014Z,15.73
2022-11-13T13:48:14.788Z,13.88
2022-11-13T13:51:01.457Z,13.70
2022-11-13T13:53:47.984Z,14.07
2022-11-13T13:56:34.453Z,15.02
2022-11-13T13:59:38.476Z,13.27
2022-11-13T14:02:25.322Z,13.10
2022-11-13T14:05:31.096Z,13.20
2022-11-13T14:08:18.013Z,15.07
2022-11-13T14:11:04.809Z,14.35
2022-11-13T14:13:50.832Z,12.88
2022-11-13T14:16:47.237Z,13.55
2022-11-13T14:19:33.164Z,13.95
2022-11-13T14:22:19.374Z,13.02
2022-11-13T14:25:05.831Z,14.00
2022-11-13T14:27:52.313Z,13.10
2022-11-13T14:30:38.569Z,14.45
2022-11-13T14:33:27.869Z,13.82
2022-11-13T14:36:14.592Z,11.27
2022-11-13T14:39:00.550Z,10.82
2022-11-13T14:41:52.091Z,12.90
2022-11-13T14:44:37.944Z,12.13
2022-11-13T14:47:26.992Z,12.07
2022-11-13T14:50:16.161Z,10.32
2022-11-13T14:53:03.746Z,12.00
2022-11-13T14:55:53.577Z,12.50
2022-11-13T14:58:47.067Z,11.75
2022-11-13T15:01:32.895Z,10.88
2022-11-13T15:04:18.801Z,13.60
2022-11-13T15:07:18.811Z,10.48
2022-11-13T15:10:05.081Z,11.68
2022-11-13T15:12:51.129Z,12.00
2022-11-13T15:15:36.935Z,10.95
2022-11-13T15:18:23.133Z,13.05
2022-11-13T15:21:09.027Z,11.63
2022-11-13T15:23:54.566Z,10.90
2022-11-13T15:26:41.251Z,11.77
2022-11-13T15:29:27.122Z,11.00
2022-11-13T15:32:13.998Z,13.25
2022-11-13T15:34:59.715Z,12.38
2022-11-13T15:37:45.528Z,11.82
2022-11-13T15:40:31.940Z,12.55
2022-11-13T15:43:23.026Z,12.20
2022-11-13T15:46:17.317Z,14.82
2022-11-13T15:49:03.442Z,12.77
2022-11-13T15:51:49.774Z,12.07
2022-11-13T15:54:38.057Z,13.38
2022-11-13T15:57:25.226Z,12.85
2022-11-13T16:00:15.380Z,13.43
2022-11-13T16:03:00.862Z,11.00
2022-11-13T16:05:46.877Z,12.38
2022-11-13T16:08:32.645Z,13.23
2022-11-13T16:11:21.153Z,12.50
2022-11-13T16:14:07.027Z,13.10
2022-11-13T16:16:54.226Z,13.30
2022-11-13T16:19:41.743Z,12.57
2022-11-13T16:22:27.983Z,14.75
2022-11-13T16:25:15.488Z,15.77
2022-11-13T16:28:01.158Z,13.05
2022-11-13T16:30:47.303Z,16.05
2022-11-13T16:33:33.350Z,15.27
2022-11-13T16:36:20.371Z,14.52
2022-11-13T16:39:07.136Z,14.32
2022-11-13T16:41:53.640Z,12.25
2022-11-13T16:44:39.762Z,13.25
2022-11-13T16:47:26.448Z,13.73
2022-11-13T16:50:20.084Z,12.73
2022-11-13T16:53:06.182Z,15.52
2022-11-13T16:55:52.235Z,13.43
2022-11-13T16:58:38.275Z,15.23
2022-11-13T17:01:24.367Z,15.27
2022-11-13T17:04:12.163Z,14.57
2022-11-13T17:06:58.179Z,14.40
2022-11-13T17:09:45.565Z,13.18
2022-11-13T17:12:31.822Z,15.38
2022-11-13T17:15:18.161Z,13.68
2022-11-13T17:18:04.226Z,16.27
2022-11-13T17:20:51.014Z,13.75
2022-11-13T17:23:39.234Z,15.48
2022-11-13T17:26:25.724Z,14.73
2022-11-13T17:29:11.639Z,13.50
2022-11-13T17:31:57.444Z,15.32
2022-11-13T17:34:46.781Z,15.10
2022-11-13T17:37:32.651Z,14.15
2022-11-13T17:40:18.929Z,15.30
2022-11-13T17:43:04.696Z,15.60
2022-11-13T17:45:53.507Z,15.73
2022-11-13T17:48:39.779Z,15.05
2022-11-13T17:51:26.012Z,14.63
2022-11-13T17:54:11.816Z,16.98
2022-11-13T17:56:57.759Z,15.48
2022-11-13T17:59:43.710Z,15.02
2022-11-13T18:02:31.793Z,14.13
2022-11-13T18:05:19.856Z,16.65
2022-11-13T18:08:06.326Z,15.25
2022-11-13T18:10:51.950Z,14.63
2022-11-13T18:13:38.566Z,15.90
2022-11-13T18:16:26.332Z,13.95
2022-11-13T18:19:14.732Z,14.02
2022-11-13T18:22:00.823Z,18.52
2022-11-13T18:24:47.122Z,14.68
2022-11-13T18:27:33.324Z,19.27
2022-11-13T18:30:21.228Z,15.40
2022-11-13T18:33:07.143Z,18.70
2022-11-13T18:35:55.964Z,18.20
2022-11-13T18:38:43.387Z,16.48
2022-11-13T18:41:29.861Z,20.27
2022-11-13T18:44:16.049Z,18.98
2022-11-13T18:47:01.982Z,18.98
2022-11-13T18:49:47.904Z,18.40
2022-11-13T18:52:33.841Z,16.45
2022-11-13T18:55:19.555Z,19.75
2022-11-13T18:58:08.585Z,20.08
2022-11-13T19:00:54.621Z,18.23
2022-11-13T19:03:50.838Z,17.80
2022-11-13T19:06:47.107Z,17.98
2022-11-13T19:09:33.397Z,17.38
2022-11-13T19:12:20.264Z,15.68
2022-11-13T19:15:07.479Z,16.80
2022-11-13T19:17:53.414Z,16.42
2022-11-13T19:20:39.817Z,15.98
2022-11-13T19:23:25.973Z,13.80
2022-11-13T19:26:12.359Z,17.67
2022-11-13T19:28:58.149Z,16.02
2022-11-13T19:31:46.611Z,12.52
2022-11-13T19:34:32.414Z,15.32
2022-11-13T19:37:19.411Z,14.13
2022-11-13T19:40:05.742Z,14.75
2022-11-13T19:43:00.514Z,15.15
2022-11-13T19:45:46.790Z,14.50
2022-11-13T19:48:33.219Z,14.88
2022-11-13T19:51:20.692Z,14.43
2022-11-13T19:54:06.752Z,15.25
2022-11-13T19:56:52.878Z,14.35
2022-11-13T19:59:39.763Z,13.98
2022-11-13T20:02:25.814Z,15.82
2022-11-13T20:05:12.492Z,13.73
2022-11-13T20:07:58.770Z,13.93
2022-11-13T20:10:44.710Z,12.90
2022-11-13T20:13:36.538Z,17.67
2022-11-13T20:16:23.834Z,15.10
2022-11-13T20:19:09.999Z,15.18
2022-11-13T20:21:56.020Z,15.35
2022-11-13T20:24:41.906Z,13.13
2022-11-13T20:27:27.944Z,16.58
2022-11-13T20:30:13.898Z,12.98
2022-11-13T20:33:00.254Z,13.48
2022-11-13T20:35:53.421Z,15.30
2022-11-13T20:38:42.476Z,14.20
2022-11-13T20:41:28.848Z,16.45
2022-11-13T20:44:15.900Z,14.50
2022-11-13T20:47:01.711Z,13.15
2022-11-13T20:49:47.813Z,13.75
2022-11-13T20:52:34.343Z,14.45
2022-11-13T20:55:20.533Z,14.77
2022-11-13T20:58:06.278Z,15.35
2022-11-13T21:00:52.424Z,16.45
2022-11-13T21:03:41.419Z,14.77
2022-11-13T21:06:28.042Z,15.52
2022-11-13T21:09:14.053Z,17.70
2022-11-13T21:12:00.103Z,15.63
2022-11-13T21:14:45.922Z,15.00
2022-11-13T21:17:31.740Z,17.35
2022-11-13T21:20:17.569Z,17.00
2022-11-13T21:23:04.185Z,15.02
2022-11-13T21:25:58.676Z,14.40
2022-11-13T21:28:45.005Z,13.90
2022-11-13T21:31:31.371Z,14.52
2022-11-13T21:34:17.693Z,15.68
2022-11-13T21:37:03.322Z,14.10
2022-11-13T21:39:49.479Z,16.60
2022-11-13T21:42:37.551Z,13.50
2022-11-13T21:45:24.095Z,12.88
2022-11-13T21:48:10.334Z,15.98
2022-11-13T21:50:58.207Z,14.18
2022-11-13T21:53:43.924Z,18.08
2022-11-13T21:56:30.421Z,16.92
2022-11-13T21:59:16.590Z,18.00
2022-11-13T22:02:03.363Z,18.67
2022-11-13T22:04:50.871Z,16.55
2022-11-13T22:07:37.305Z,15.30
2022-11-13T22:10:23.497Z,15.48
2022-11-13T22:13:09.417Z,15.02
2022-11-13T22:15:55.245Z,15.75
2022-11-13T22:18:41.228Z,14.25
2022-11-13T22:21:28.432Z,15.63
2022-11-13T22:24:15.158Z,16.48
2022-11-13T22:27:01.277Z,13.23
2022-11-13T22:29:47.446Z,11.57
2022-11-13T22:32:33.304Z,12.73
2022-11-13T22:35:19.128Z,13.25
2022-11-13T22:38:05.479Z,11.73
2022-11-13T22:40:51.592Z,12.60
2022-11-13T22:43:39.054Z,14.73
2022-11-13T22:46:26.436Z,10.55
2022-11-13T22:49:12.468Z,12.40
2022-11-13T22:51:58.562Z,11.15
2022-11-13T22:54:44.876Z,11.80
2022-11-13T22:57:30.679Z,11.68
2022-11-13T23:00:16.535Z,10.15
2022-11-13T23:03:02.901Z,11.00
2022-11-13T23:05:48.938Z,10.40
2022-11-13T23:08:39.111Z,12.35
2022-11-13T23:11:26.258Z,10.98
2022-11-13T23:14:13.150Z,12.68
2022-11-13T23:16:58.860Z,11.10
2022-11-13T23:19:45.183Z,12.48
2022-11-13T23:22:30.829Z,13.15
2022-11-13T23:25:16.812Z,14.02
2022-11-13T23:28:03.444Z,13.32
2022-11-13T23:30:49.738Z,13.02
2022-11-13T23:33:35.683Z,13.25
2022-11-13T23:36:21.788Z,15.02
2022-11-13T23:39:07.424Z,13.23
2022-11-13T23:41:53.578Z,13.10
2022-11-13T23:44:39.526Z,11.93
2022-11-13T23:47:25.955Z,12.25
2022-11-13T23:50:11.717Z,11.38
2022-11-13T23:52:57.747Z,12.82
2022-11-13T23:55:44.091Z,13.27
2022-11-13T23:58:32.157Z,12.57
